Date,TemperatureHighF,TemperatureAvgF,TemperatureLowF,DewpointHighF,DewpointAvgF,DewpointLowF,HumidityHigh,HumidityAvg,HumidityLow,PressureMaxIn,PressureMinIn,WindSpeedMaxMPH,WindSpeedAvgMPH,GustSpeedMaxMPH,PrecipitationSumIn
2014-1-1,6,1,-1,-8,-13,-15,51,51,51,29.03,28.85,16,7,19,0.00
2014-1-2,9,-5,-17,-6,-18,-30,51,51,51,29.12,29.00,7,3,9,0.00
2014-1-3,30,15,-12,15,0,-25,54,50,44,29.03,28.23,42,18,42,0.00
2014-1-4,36,16,3,23,-1,-15,64,47,41,28.85,28.23,23,11,28,0.00
2014-1-5,7,-4,-15,-12,-21,-32,42,42,42,29.06,28.85,28,13,32,0.00
2014-1-6,-2,-11,-18,-20,-28,-34,42,42,42,29.03,28.88,24,14,28,0.00
2014-1-7,25,6,-11,0,-14,-28,42,38,32,28.91,28.73,9,5,10,0.00
2014-1-8,17,8,0,-5,-14,-21,39,36,36,29.09,28.88,10,4,11,0.00
2014-1-9,33,15,0,14,-3,-20,76,45,35,29.03,28.58,23,11,23,0.00
2014-1-10,35,27,21,30,21,14,85,76,67,28.61,28.23,11,4,15,0.00
2014-1-11,32,24,14,26,14,4,83,67,50,28.47,28.23,18,7,20,0.00
2014-1-12,44,36,22,25,20,16,78,54,40,28.38,28.14,26,10,30,0.00
2014-1-13,46,36,28,21,15,10,63,44,28,28.47,28.26,17,10,21,0.00
2014-1-14,41,26,14,25,8,-3,54,45,35,28.82,28.23,37,17,42,0.00
2014-1-15,32,21,7,12,0,-10,51,39,31,28.82,28.26,25,10,26,0.00
2014-1-16,37,24,6,22,4,-11,62,42,34,28.61,28.26,33,17,37,0.00
2014-1-17,28,12,2,3,-8,-16,43,40,32,28.73,28.61,20,11,26,0.00
2014-1-18,35,23,11,30,10,-2,81,57,40,28.70,28.20,26,12,29,0.00
2014-1-19,59,36,16,23,15,7,72,47,24,28.58,28.26,37,14,37,0.00
2014-1-20,45,25,-3,26,11,-17,76,56,38,29.06,28.47,23,10,25,0.00
2014-1-21,12,1,-12,-3,-13,-26,50,50,50,29.12,28.67,18,9,20,0.00
2014-1-22,18,9,-7,3,-8,-24,55,46,39,29.14,28.64,21,12,28,0.00
2014-1-23,11,-1,-12,-8,-19,-29,41,41,41,29.38,29.00,18,9,20,0.00
2014-1-24,41,25,1,25,4,-18,60,41,30,29.00,28.29,25,15,32,0.00
2014-1-25,35,22,10,24,-2,-12,66,34,22,28.67,28.11,24,12,29,0.00
2014-1-26,43,37,28,20,15,3,45,40,34,28.26,28.08,39,18,45,0.00
2014-2-4,13,5,2,-4,-11,-14,46,46,46,29.03,28.94,14,7,19,0.00
2014-2-5,9,1,-10,-7,-15,-26,46,46,46,29.20,29.03,20,10,23,0.00
2014-2-6,12,0,-11,-5,-16,-26,46,46,46,29.20,28.97,18,9,20,0.00
2014-2-7,24,6,-12,-1,-14,-27,46,38,33,29.00,28.79,17,7,19,0.00
2014-2-8,31,14,6,8,-6,-13,54,40,33,28.85,28.67,14,6,14,0.00
2014-2-9,10,1,-7,-7,-15,-22,46,46,46,29.06,28.82,13,7,17,0.00
2014-2-10,10,-5,-18,-7,-20,-32,46,46,46,29.14,29.03,9,4,10,0.00
2014-2-11,22,6,-18,-2,-12,-32,47,43,34,29.12,28.73,25,13,29,0.00
2014-2-12,29,20,15,11,4,-2,65,50,42,28.76,28.50,23,7,26,0.00
2014-2-13,44,29,14,21,9,-3,64,42,33,28.50,28.29,31,16,38,0.00
2014-2-14,17,9,-2,-2,-9,-20,46,43,39,28.73,28.41,14,7,17,0.00
2014-2-15,43,21,-2,22,4,-20,66,49,40,28.70,28.41,25,12,28,0.04
2014-2-16,29,20,14,11,7,3,68,56,41,28.85,28.55,24,11,28,0.00
2014-2-17,44,31,21,26,16,9,77,56,38,28.61,28.44,31,13,34,0.00
2014-2-18,59,40,25,26,19,12,69,46,26,28.55,28.26,20,9,22,0.00
2014-2-19,60,40,24,30,22,16,83,52,24,28.58,28.32,24,9,26,0.00
2014-2-20,36,32,20,31,25,6,91,74,52,28.32,28.08,39,13,42,0.25
2014-2-21,35,22,11,13,5,-2,61,47,33,28.55,28.26,37,14,37,0.00
2014-2-22,32,21,11,8,2,-4,69,44,31,28.85,28.55,12,4,13,0.00
2014-2-23,29,15,3,4,-3,-12,50,44,33,29.00,28.82,18,6,20,0.00
2014-2-24,34,16,8,6,-2,-8,55,45,30,29.03,28.91,8,4,9,0.00
2014-2-25,14,3,-10,0,-12,-22,55,48,37,29.09,28.97,21,10,24,0.00
2014-2-26,24,7,-13,4,-13,-32,44,39,36,29.06,28.47,27,13,32,0.00
2014-2-27,20,1,-10,-8,-22,-34,44,34,23,28.85,28.64,16,6,17,0.00
2014-2-28,34,14,-5,8,-9,-33,62,36,24,28.79,28.47,23,10,27,0.00
2014-3-1,12,1,-4,0,-13,-18,50,47,48,29.14,28.79,18,8,20,0.00
2014-3-2,5,-5,-12,-10,-19,-26,50,50,50,29.23,29.12,13,6,14,0.00
2014-3-3,15,4,-14,-2,-15,-27,50,42,31,29.17,28.82,19,9,21,0.00
2014-3-4,34,17,1,6,-6,-21,57,37,28,28.85,28.70,15,8,18,0.00
2014-3-5,32,20,10,8,5,-2,62,52,36,29.00,28.82,14,9,15,0.00
2014-3-6,36,26,7,22,13,-4,74,60,43,28.97,28.50,29,15,31,0.00
2014-3-7,43,30,21,28,16,7,79,57,41,28.82,28.44,21,8,21,0.00
2014-3-8,35,23,13,10,5,-1,57,47,33,29.00,28.82,10,6,13,0.00
2014-3-9,60,38,16,32,20,7,70,49,35,28.88,28.44,20,9,22,0.00
2014-3-10,70,50,35,39,29,21,81,46,26,28.47,28.38,14,6,14,0.00
2014-3-11,41,37,32,34,26,17,78,64,54,28.70,28.32,28,10,31,0.00
2014-3-12,44,30,26,20,12,7,68,47,35,28.82,28.70,18,7,22,0.00
2014-3-13,66,44,28,29,23,19,77,47,23,28.73,28.32,19,10,23,0.00
2014-3-14,56,42,32,27,21,16,65,43,28,28.64,28.29,27,11,29,0.00
2014-3-15,42,32,27,27,17,7,80,55,34,28.94,28.61,24,11,26,0.00
2014-3-16,42,29,19,12,6,2,53,39,26,29.06,28.70,15,7,19,0.00
2014-3-17,56,35,24,23,13,6,50,41,27,28.70,28.20,30,18,33,0.00
2014-3-18,57,39,29,28,21,16,79,51,29,28.41,28.17,20,8,25,0.00
2014-3-19,48,36,28,26,19,15,81,52,31,28.70,28.41,22,10,23,0.04
2014-3-20,61,42,23,30,21,14,76,48,22,28.70,28.55,13,6,15,0.00
2014-3-21,59,40,25,27,19,7,60,44,26,28.85,28.44,28,13,30,0.00
2014-3-22,35,24,15,7,0,-3,45,36,27,29.14,28.85,19,8,22,0.00
2014-3-23,44,25,8,6,0,-8,50,35,20,29.17,28.97,12,4,15,0.00
2014-3-24,47,31,23,15,9,2,53,40,24,28.97,28.82,20,8,24,0.00
2014-3-25,37,24,12,8,-1,-12,51,35,21,29.00,28.82,20,8,33,0.00
2014-3-26,61,39,12,28,11,-10,52,32,19,28.82,28.29,42,21,48,0.00
2014-3-27,45,40,32,43,34,23,93,81,52,28.44,28.05,32,12,38,0.21
2014-3-28,36,33,30,23,18,15,68,55,43,28.91,28.44,13,5,15,0.00
2014-3-29,57,40,21,23,19,10,72,46,26,28.94,28.73,19,7,22,0.00
2014-3-30,74,51,34,30,24,18,57,37,16,28.73,28.38,27,16,30,0.00
2014-3-31,80,50,21,38,23,2,69,37,12,28.41,28.08,40,22,40,0.04
2014-4-1,48,32,18,15,7,0,51,35,24,28.76,28.41,36,13,44,0.00
2014-4-2,53,38,26,23,18,13,77,49,26,28.79,28.58,24,11,24,0.00
2014-4-3,42,36,32,35,31,21,89,81,44,28.58,28.35,18,9,24,0.16
2014-4-4,42,34,28,26,21,16,84,59,40,28.79,28.35,25,13,30,0.00
2014-4-5,57,40,24,27,20,15,74,47,25,28.82,28.64,24,9,26,0.00
2014-4-6,61,46,35,34,26,17,64,45,28,28.64,28.52,18,9,18,0.00
2014-4-7,66,50,37,39,28,20,77,45,23,28.55,28.44,16,5,24,0.00
2014-4-8,58,45,29,28,20,6,66,40,19,28.73,28.55,19,8,24,0.00
2014-4-9,79,50,27,23,16,7,56,31,12,28.73,28.32,33,10,33,0.00
2014-4-10,69,57,40,27,17,3,44,23,13,28.67,28.29,25,8,28,0.00
2014-4-11,78,55,34,27,15,1,34,22,12,28.67,28.52,25,8,27,0.00
2014-4-12,82,66,52,47,32,12,68,31,17,28.52,28.26,24,11,26,0.09
2014-4-13,52,40,31,43,34,25,90,78,66,28.55,28.35,24,9,24,0.78
2014-4-14,42,32,26,25,10,4,77,42,29,28.82,28.55,24,11,24,0.09
2014-4-15,45,33,18,17,11,4,56,40,29,28.88,28.58,18,6,21,0.00
2014-4-16,62,43,32,32,22,15,71,45,24,28.67,28.38,37,17,38,0.00
2014-4-17,57,40,28,24,18,11,70,45,23,28.97,28.67,20,8,24,0.00
2014-4-18,66,48,26,25,20,16,79,38,18,29.00,28.76,24,11,27,0.00
2014-4-19,82,63,46,34,26,20,43,27,14,28.82,28.67,34,17,38,0.00
2014-4-20,83,67,54,47,37,27,72,34,22,28.73,28.55,15,7,16,0.72
2014-4-21,74,61,46,56,37,19,88,47,18,28.79,28.61,14,7,14,0.79
2014-4-22,69,54,35,29,23,18,53,31,20,28.85,28.67,9,4,10,0.00
2014-4-23,54,49,45,36,25,18,71,42,28,28.73,28.44,34,18,42,0.12
2014-4-24,59,50,41,41,34,28,76,56,36,28.50,28.32,18,7,24,0.38
2014-4-25,42,41,40,36,32,30,81,71,66,28.50,28.47,5,2,6,0.00
2014-4-27,57,53,45,50,43,29,88,68,49,28.29,28.02,35,19,37,0.37
2014-4-28,57,50,46,52,46,41,94,87,65,28.17,28.05,27,18,27,0.04
2014-4-29,46,42,36,42,35,25,92,77,58,28.47,28.14,16,8,16,0.13
2014-4-30,44,40,36,34,31,26,77,68,60,28.55,28.47,15,9,15,0.20
2014-5-1,47,42,39,36,32,28,78,67,50,28.61,28.47,15,12,15,0.08
2014-5-2,68,54,35,34,27,19,77,39,20,28.61,28.38,27,10,30,0.00
2014-5-3,71,52,38,35,26,20,57,37,19,28.64,28.50,25,10,28,0.00
2014-5-4,62,51,40,30,25,21,59,38,25,28.76,28.55,23,10,25,0.08
2014-5-5,72,58,42,28,25,21,53,30,16,28.61,28.52,20,10,23,0.00
2014-5-6,75,61,46,32,27,21,39,28,21,28.58,28.35,29,15,32,0.00
2014-5-7,94,74,54,51,37,23,55,27,17,28.35,28.23,45,14,50,0.13
2014-5-8,78,64,59,54,48,32,76,57,21,28.41,28.32,40,8,40,0.66
2014-5-9,69,57,46,36,27,17,63,35,17,28.52,28.38,31,13,31,0.00
2014-5-10,79,58,44,46,35,21,61,43,21,28.55,28.38,29,8,32,0.04
2014-5-11,72,59,47,58,48,36,88,67,42,28.58,28.38,28,9,42,0.66
2014-5-12,67,57,48,61,49,37,92,74,61,28.67,28.38,20,7,20,0.05
2014-5-13,60,51,43,37,28,21,64,43,26,28.94,28.64,20,9,20,0.00
2014-5-14,71,52,35,29,22,14,65,34,17,28.94,28.76,11,4,13,0.00
2014-5-15,55,45,34,24,17,13,54,34,27,28.85,28.79,14,7,15,0.00
2014-5-16,62,47,31,23,17,10,61,32,19,28.82,28.73,12,3,14,0.00
2014-5-17,72,55,34,24,17,11,44,25,14,28.82,28.73,18,5,20,0.00
2014-5-18,75,61,42,28,21,15,39,23,13,28.85,28.64,31,12,31,0.00
2014-5-19,71,64,55,50,40,26,65,43,26,28.67,28.41,30,15,34,0.08
2014-5-20,92,73,56,57,41,27,78,38,12,28.58,28.44,16,4,18,0.00
2014-5-21,84,69,56,36,31,22,45,26,13,28.82,28.58,12,3,12,0.00
2014-5-22,85,66,50,34,28,15,46,26,11,28.91,28.79,15,3,15,0.00
2014-5-23,87,70,49,32,25,18,38,20,11,28.91,28.76,13,6,15,0.00
2014-5-24,85,70,54,38,29,22,38,23,11,28.85,28.70,20,8,23,0.00
2014-5-25,82,71,63,54,46,38,63,43,30,28.73,28.58,18,9,21,0.00
2014-5-26,88,74,65,60,50,41,78,48,21,28.67,28.55,19,7,21,0.00
2014-5-27,90,75,64,58,48,39,74,43,20,28.67,28.58,13,5,15,0.05
2014-5-28,87,72,62,58,46,28,77,45,21,28.73,28.64,17,6,19,0.00
2014-5-29,90,75,60,47,39,26,45,29,19,28.79,28.67,15,7,21,0.00
2014-5-30,92,79,66,56,47,40,68,36,19,28.79,28.70,20,8,23,0.00
2014-5-31,90,79,69,58,49,41,66,39,19,28.79,28.61,25,10,29,0.00
2014-6-1,93,76,65,62,50,38,88,44,18,28.61,28.44,26,11,26,1.12
2014-6-2,82,71,62,58,48,35,82,49,21,28.64,28.47,26,12,29,0.00
2014-6-3,82,67,53,57,44,35,80,48,21,28.73,28.38,30,4,35,0.58
2014-6-4,81,70,62,60,52,44,86,57,30,28.61,28.32,20,6,22,0.04
2014-6-5,76,67,58,56,49,45,84,56,34,28.64,28.55,18,7,21,0.00
2014-6-6,74,73,72,48,43,36,41,34,25,28.61,28.58,10,6,11,0.00
2014-6-7,81,68,57,58,45,38,71,45,25,28.73,28.58,20,5,20,0.00
2014-6-8,81,67,52,45,35,25,72,38,14,28.82,28.67,21,6,26,0.00
2014-6-9,75,66,56,52,42,36,72,42,29,28.70,28.61,14,6,15,0.00
2014-6-10,84,68,55,46,39,35,58,36,22,28.61,28.55,16,5,17,0.00
2014-6-11,88,73,53,50,39,32,63,32,18,28.58,28.44,13,4,16,0.00
2014-6-12,79,67,52,44,32,19,53,29,16,28.73,28.47,24,8,27,0.00
2014-6-13,82,67,42,34,26,18,54,25,12,28.79,28.58,16,6,20,0.00
2014-6-14,80,70,59,52,41,27,50,35,25,28.64,28.32,30,15,32,0.05
2014-6-15,82,71,60,58,46,35,81,45,22,28.61,28.23,27,9,28,0.08
2014-6-16,88,69,56,63,53,42,90,58,30,28.64,28.35,37,11,45,2.74
2014-6-17,87,76,61,69,58,46,92,58,32,28.58,28.44,27,11,34,0.33
2014-6-18,90,79,68,68,60,51,77,54,36,28.52,28.44,23,10,23,0.00
2014-6-19,86,75,69,68,63,54,83,67,39,28.67,28.50,26,7,27,0.62
2014-6-20,94,75,63,66,54,42,88,55,18,28.70,28.55,18,3,19,0.00
2014-6-21,96,78,65,58,51,44,74,44,19,28.67,28.55,18,3,20,0.00
2014-6-22,82,71,65,65,57,50,86,63,39,28.64,28.50,11,3,20,0.79
2014-6-23,87,75,62,67,51,43,83,48,25,28.64,28.52,11,3,13,0.00
2014-6-24,88,74,59,56,47,38,81,44,20,28.70,28.64,14,4,15,0.00
2014-6-25,72,68,62,52,50,47,67,53,41,28.70,28.67,4,2,7,0.00
2014-6-26,87,74,65,61,54,47,82,53,30,28.70,28.55,20,7,22,0.34
2014-6-27,84,73,66,67,59,48,84,64,32,28.58,28.47,18,8,27,0.08
2014-6-28,87,75,62,68,57,41,79,56,33,28.52,28.41,28,10,29,0.29
2014-6-29,88,72,61,67,56,49,82,59,31,28.61,28.44,20,6,20,0.33
2014-6-30,80,68,63,69,58,49,87,71,40,28.52,28.32,16,5,22,2.12
2014-7-1,78,66,57,50,44,38,71,47,29,28.61,28.41,27,11,29,0.00
2014-7-2,80,62,52,45,39,32,68,45,22,28.82,28.61,15,4,15,0.00
2014-7-3,87,67,49,51,39,34,72,42,19,28.91,28.82,7,2,10,0.00
2014-7-4,83,71,56,49,44,40,64,41,24,28.97,28.82,16,7,20,0.00
2014-7-5,84,72,63,64,55,48,85,58,33,28.88,28.61,26,8,26,0.54
2014-7-6,95,78,67,72,61,45,90,63,28,28.61,28.47,13,5,16,0.00
2014-7-7,90,76,61,64,53,48,72,46,27,28.58,28.44,15,4,15,0.00
2014-7-8,84,71,60,56,45,38,73,43,22,28.67,28.47,25,8,25,0.00
2014-7-9,87,70,52,51,44,39,69,42,21,28.76,28.67,11,3,13,0.00
2014-7-10,87,73,58,56,47,43,71,43,22,28.79,28.67,20,6,24,0.00
2014-7-11,85,72,65,62,53,46,73,53,33,28.76,28.64,22,6,24,0.00
2014-7-12,83,71,66,70,61,53,86,71,44,28.79,28.67,8,2,13,0.74
2014-7-13,90,75,60,64,51,40,82,49,21,28.73,28.64,15,4,15,0.00
2014-7-14,76,65,53,54,39,29,74,42,22,28.79,28.64,18,5,20,0.00
2014-7-15,80,64,50,46,37,30,72,41,21,28.82,28.73,11,4,14,0.00
2014-7-16,87,68,48,50,38,33,68,39,18,28.79,28.73,7,2,8,0.00
2014-7-17,87,68,47,54,40,35,67,40,19,28.79,28.73,9,2,11,0.00
2014-7-18,84,68,52,54,44,39,73,46,24,28.76,28.67,15,4,17,0.00
2014-7-19,84,72,58,54,49,45,73,48,28,28.70,28.61,14,5,18,0.00
2014-7-20,89,76,62,57,52,48,75,47,28,28.64,28.55,19,7,21,0.00
2014-7-21,93,80,68,67,60,54,75,51,32,28.61,28.55,14,6,18,0.00
2014-7-22,94,81,65,69,55,42,76,45,25,28.85,28.55,12,4,17,0.00
2014-7-23,92,74,58,51,44,39,63,38,19,28.94,28.85,9,2,10,0.00
2014-7-24,82,65,55,56,47,40,73,54,25,28.88,28.55,25,4,31,0.21
2014-7-25,88,74,63,60,52,45,83,49,31,28.61,28.47,25,8,30,0.29
2014-7-26,95,77,67,67,56,46,67,50,27,28.64,28.50,10,2,12,0.00
2014-7-27,78,71,67,49,45,39,53,40,30,28.85,28.61,20,6,20,0.00
2014-7-28,71,71,71,40,40,40,32,32,32,28.91,28.82,8,2,10,0.00
2014-7-29,71,71,71,40,40,40,32,32,32,28.88,28.79,8,3,10,0.00
2014-7-30,71,71,71,40,40,40,32,32,32,28.85,28.76,8,2,9,0.00
2014-7-31,71,71,71,40,40,40,32,32,32,28.82,28.73,9,2,10,0.00
2014-8-1,71,71,71,40,40,40,32,32,32,28.82,28.76,6,1,6,0.00
2014-8-2,71,71,71,40,40,40,32,32,32,28.85,28.76,8,2,8,0.00
2014-8-3,71,71,71,40,40,40,32,32,32,28.82,28.73,7,2,10,0.00
2014-8-4,71,71,71,40,40,40,32,32,32,28.79,28.73,3,0,3,0.00
2014-8-5,71,71,71,40,40,40,32,32,32,28.82,28.73,7,1,8,0.00
2014-8-11,70,63,62,38,38,36,41,39,29,28.79,28.76,6,4,7,0.00
2014-8-12,86,68,52,50,40,36,66,40,20,28.82,28.73,13,3,13,0.00
2014-8-13,91,70,52,55,42,38,58,40,18,28.85,28.76,10,2,10,0.00
2014-8-14,90,70,52,55,46,41,64,45,21,28.82,28.67,8,2,8,0.00
2014-8-15,74,68,66,62,56,52,73,66,55,28.73,28.58,13,4,17,1.12
2014-8-16,94,75,64,67,56,48,73,56,28,28.64,28.55,6,2,9,0.00
2014-8-17,93,78,61,67,55,51,70,47,27,28.70,28.58,11,3,13,0.00
2014-8-18,95,78,65,66,55,47,70,50,22,28.61,28.44,10,3,11,0.00
2014-8-19,92,75,62,62,50,42,68,46,20,28.55,28.47,9,3,10,0.00
2014-8-20,77,70,62,64,58,50,72,66,52,28.58,28.50,13,3,13,0.29
2014-8-21,91,80,71,66,61,54,75,55,31,28.58,28.44,15,5,18,0.04
2014-8-22,90,79,73,75,64,56,79,62,38,28.67,28.55,9,2,12,0.00
2014-8-23,87,79,75,79,66,57,98,67,38,28.67,28.55,19,6,21,0.54
2014-8-24,92,82,71,80,64,52,98,60,28,28.67,28.52,14,5,19,0.29
2014-8-25,85,75,67,73,55,45,97,54,27,28.79,28.58,13,3,13,0.00
2014-8-26,79,69,63,54,48,42,68,49,30,28.88,28.76,8,2,13,0.00
2014-8-27,81,70,63,62,54,49,75,58,35,28.88,28.76,10,3,11,0.00
2014-8-28,78,73,71,72,67,60,98,82,55,28.79,28.55,18,6,30,0.83
2014-8-29,82,75,69,64,61,54,70,63,43,28.58,28.47,14,5,19,0.17
2014-8-30,86,70,61,59,54,44,70,59,29,28.61,28.50,10,4,10,0.00
2014-8-31,90,70,60,61,54,49,70,59,29,28.58,28.35,24,6,24,1.41
2014-9-1,83,70,62,58,51,43,69,54,27,28.58,28.38,13,4,15,0.00
2014-9-2,82,70,60,52,47,40,66,47,24,28.67,28.58,15,3,20,0.13
2014-9-3,87,72,60,62,52,46,68,51,31,28.64,28.44,20,7,24,0.00
2014-9-4,91,80,74,64,59,54,69,53,30,28.64,28.38,14,6,20,0.00
2014-9-5,74,67,53,64,50,36,69,56,35,28.94,28.61,10,3,13,0.53
2014-9-6,81,64,52,44,40,33,71,47,20,28.97,28.88,10,3,10,0.00
2014-9-7,78,65,55,47,40,33,65,44,20,28.91,28.73,14,4,17,0.00
2014-9-8,75,63,58,65,49,45,87,61,35,28.73,28.52,23,6,28,0.37
2014-9-9,79,71,69,76,66,52,98,86,49,28.55,28.38,13,4,18,0.17
2014-9-10,71,71,71,70,70,70,98,98,98,28.79,28.35,13,4,16,0.17
2014-9-11,71,63,48,70,51,28,98,70,34,29.03,28.79,15,3,15,0.00
2014-9-12,60,49,38,40,34,24,75,58,34,29.12,29.03,8,1,9,0.41
2014-9-13,66,50,36,38,27,23,68,46,23,29.06,28.88,15,3,19,0.00
2014-9-14,76,59,44,43,35,32,70,44,22,28.91,28.79,10,3,12,0.00
2014-9-15,68,56,41,45,37,24,65,50,27,28.94,28.76,15,3,15,0.00
2014-9-16,73,56,40,41,31,26,64,43,22,28.94,28.70,10,3,13,0.00
2014-9-17,83,64,53,44,40,34,66,46,20,28.70,28.61,8,2,10,0.00
2014-9-18,76,58,54,55,47,42,94,66,38,28.76,28.67,12,5,16,0.00
2014-9-19,86,68,56,69,62,55,98,83,51,28.70,28.47,19,9,24,0.00
2014-9-20,86,72,59,71,61,48,98,72,38,28.70,28.50,18,6,24,0.62
2014-9-21,51,49,47,48,47,45,96,92,87,28.94,28.91,2,0,3,0.00
2014-9-22,80,59,39,58,48,38,98,72,34,29.00,28.85,8,2,10,0.00
2014-9-23,70,58,46,61,53,45,98,84,53,28.91,28.79,16,5,18,0.17
2014-9-24,76,64,56,62,58,55,98,82,57,28.85,28.79,17,8,20,0.12
2014-9-25,86,69,58,63,59,56,95,74,42,28.88,28.82,9,4,13,0.00
2014-9-26,87,69,54,63,58,53,98,73,38,28.85,28.76,14,5,16,0.00
2014-9-27,86,69,58,67,60,56,98,78,41,28.85,28.76,14,6,16,0.08
2014-9-28,88,75,58,65,54,48,88,52,34,28.85,28.73,10,3,12,0.00
2014-9-29,77,66,55,64,60,53,97,83,59,28.76,28.70,12,4,15,0.00
2014-9-30,73,58,51,60,56,50,98,91,60,28.73,28.50,17,8,22,0.75